Terminal Aerodrome Forecast
Issued by NWS Charleston, WV

Current Version | Previous Version | Graphics & Text | Print | Product List | Glossary On
Versions: 1 2 3 4 5 6 7 8 9 10 11 12 13 14 15 16 17 18 19 20 21 22 23 24 25 26 27 28
000
FTUS41 KRLX 030216 AAA
TAFPKB
TAF AMD
KPKB 030216Z 0302/0324 VRB03KT P6SM BKN090
     FM030500 00000KT 4SM BR BKN080
     FM030700 00000KT 2SM BR SCT001 BKN070
     FM030900 00000KT 1/2SM FG OVC001
     FM031300 00000KT 3SM BR SCT001 BKN070
     FM031400 07003KT 6SM HZ BKN070
     FM031900 04004KT P6SM BKN050
     FM032200 09003KT 6SM -SHRA BR OVC040=

USA.gov is the U.S. government's official web portal to all federal, state and local government web resources and services.